Knickerbocker, Texas
Current Conditions -  °F | °C
As of 3:51 PM on Tuesday 25 Nov 2014 (Local Time) from KSJT Reporting Station
Clear Clear  
Wind Chill: 62°   Ceiling: Unl
Heat Index: 62°   Visibility: 10mi
Dew Point: 18°   Wind: 15mph
Humidity: 18%   Direction: 280°W
Pressure: 30.22"   Gusts: 21mph
Location:  31.27°N, 100.62°W
Report Text: KSJT 252151Z 28013G18KT 10SM CLR 17/M08 A3022 RMK AO2 SLP233 T01671078
Loading
Personal Weather Stations






























Interactive Weather Map New forecast layout! Learn more

10-Day Weather Forecast

Advertisements
Track Severe Weather on mobile